Serendipity II — ZCIP — position and weather

sailwx.info

Track history (hours):
 
Tides and Currents Weather Stations Pressure Air Temp Water Temp Dewpoint Dewpoint Depression Visibility Wind Speed Wind Dir Waves Ship Positions

Serendipity II

Last reported at 2017-May-26 11:39 UTC. Time now 2017-Jun-27 22:41 UTC.
Position N 26°06' W 080°03'.
Warning: this ship's position is 32 days out of date.

Length 39 m.

Type: Pleasure craft. MMSI: 319848000.

Date/timePositionNaut miles runAvg speedWind from/ knotsBaromVisibWave heightAir tempDewpointWater temp
2017-May-26 11:39N 26°06' W 080°03'316.6
2017-May-26 11:29N 26°06' W 080°06'1 1.1
2017-May-26 10:27N 26°07' W 080°06'0 0.0
2017-May-26 10:00N 26°07' W 080°06'0 0.0
2017-May-26 08:45N 26°07' W 080°06'0 0.0
2017-May-26 08:21N 26°07' W 080°06'0 0.0
2017-May-26 08:00N 26°07' W 080°06'0 0.0
2017-May-26 07:30N 26°07' W 080°06'0 0.0
2017-May-26 06:51N 26°07' W 080°06'0 0.0
2017-May-26 05:33N 26°07' W 080°06'0 0.0
2017-May-26 05:21N 26°07' W 080°06'0 0.0
2017-May-26 04:51N 26°07' W 080°06'0 0.0
2017-May-26 03:54N 26°07' W 080°06'0 0.0
2017-May-26 03:24N 26°07' W 080°06'0 0.0
2017-May-26 02:57N 26°07' W 080°06'0 0.0
2017-May-26 02:24N 26°07' W 080°06'0 0.0
2017-May-25 23:45N 26°07' W 080°06'0 0.0
2017-May-25 20:30N 26°07' W 080°06'0 0.0
2017-May-25 16:54N 26°07' W 080°06'0 0.0
2017-May-25 15:51N 26°07' W 080°06'0 0.0
2017-May-25 11:45N 26°07' W 080°06'0 0.0
2017-May-25 11:27N 26°07' W 080°06'0 0.0
2017-May-25 10:57N 26°07' W 080°06'0 0.0
2017-May-25 10:30N 26°07' W 080°06'0 0.0
2017-May-25 06:51N 26°07' W 080°06'0 0.0
2017-May-25 05:03N 26°07' W 080°06'0 0.0
2017-May-25 04:33N 26°07' W 080°06'0 0.0
2017-May-25 04:18N 26°07' W 080°06'0 0.0
2017-May-25 01:57N 26°07' W 080°06'0 0.0
2017-May-25 00:12N 26°07' W 080°06'0 0.0
2017-May-25 00:00N 26°07' W 080°06'0 0.0
2017-May-24 23:30N 26°07' W 080°06'0 0.0
2017-May-24 22:50N 26°07' W 080°06'0 0.0
2017-May-24 22:21N 26°07' W 080°06'0 0.0
2017-May-24 21:54N 26°07' W 080°06'1 2.4
2017-May-24 21:28N 26°06' W 080°06'3 2.9
2017-May-24 20:26N 26°08' W 080°05'2 4.7
2017-May-24 19:54N 26°07' W 080°07'  
2017-May-22 15:11N 26°07' W 080°06'1 2.7
2017-May-22 14:58N 26°07' W 080°07'3 3.2
2017-May-22 14:00N 26°05' W 080°04'3 5.6
2017-May-22 13:29N 26°07' W 080°07'0 0.0
2017-May-20 14:43N 26°07' W 080°06'0 1.1
2017-May-20 14:30N 26°07' W 080°07'3 2.9
2017-May-20 13:30N 26°06' W 080°10'0 0.0
2017-May-19 04:45N 26°06' W 080°10'0 0.0
2017-May-19 04:30N 26°06' W 080°10'0 0.0
2017-May-19 03:30N 26°06' W 080°10'0 0.0
2017-May-19 03:00N 26°06' W 080°10'0 0.0
2017-May-19 02:30N 26°06' W 080°10'0 0.0
2017-May-19 01:57N 26°06' W 080°10'0 0.0
2017-May-19 01:19N 26°06' W 080°10'0 0.0
2017-May-19 01:00N 26°06' W 080°10'0 0.0
2017-May-19 00:30N 26°06' W 080°10'0 0.0
2017-May-18 23:48N 26°06' W 080°10'0 0.0
2017-May-18 23:30N 26°06' W 080°10'0 0.0
2017-May-18 22:51N 26°06' W 080°10'0 0.0
2017-May-18 22:22N 26°06' W 080°10'0 0.0
2017-May-18 21:55N 26°06' W 080°10'0 0.0
2017-May-18 21:24N 26°06' W 080°10'0 0.0
2017-May-18 18:43N 26°06' W 080°10'0 0.0
2017-May-18 17:01N 26°06' W 080°10'0 0.0
2017-May-18 16:46N 26°06' W 080°10'0 0.0
2017-May-18 16:01N 26°06' W 080°10'0 0.0
2017-May-18 15:58N 26°06' W 080°10'0 0.0
2017-May-18 11:49N 26°06' W 080°10'0 0.0
2017-May-18 11:22N 26°06' W 080°10'0 0.0
2017-May-18 10:49N 26°06' W 080°10'0 0.0
2017-May-18 10:22N 26°06' W 080°10'0 0.0
2017-May-18 09:49N 26°06' W 080°10'0 0.0
2017-May-18 09:19N 26°06' W 080°10'0 0.0
2017-May-18 08:55N 26°06' W 080°10'0 0.0
2017-May-18 08:25N 26°06' W 080°10'0 0.0
2017-May-18 07:55N 26°06' W 080°10'0 0.0
2017-May-18 07:25N 26°06' W 080°10'0 0.0
2017-May-18 06:55N 26°06' W 080°10'0 0.0
2017-May-18 06:25N 26°06' W 080°10'0 0.0
2017-May-18 04:46N 26°06' W 080°10'0 0.0
2017-May-18 04:28N 26°06' W 080°10'0 0.0
2017-May-18 03:55N 26°06' W 080°10'0 0.0
2017-May-18 03:16N 26°06' W 080°10'0 0.0
2017-May-18 02:28N 26°06' W 080°10'0 0.0
2017-May-18 01:49N 26°06' W 080°10'0 0.0
2017-May-18 01:04N 26°06' W 080°10'0 0.0
2017-May-18 00:49N 26°06' W 080°10'0 0.0
2017-May-17 23:37N 26°06' W 080°10'0 0.0
2017-May-17 23:07N 26°06' W 080°10'0 0.0
2017-May-17 22:49N 26°06' W 080°10'0 0.0
2017-May-17 21:49N 26°06' W 080°10'0 0.0
2017-May-17 20:25N 26°06' W 080°10'0 0.0
2017-May-17 11:49N 26°06' W 080°10'0 0.0
2017-May-17 11:16N 26°06' W 080°10'0 0.0
2017-May-17 07:55N 26°06' W 080°10'0 0.0
2017-May-17 07:07N 26°06' W 080°10'0 0.0
2017-May-17 05:13N 26°06' W 080°10'0 0.0
2017-May-17 04:28N 26°06' W 080°10'0 0.0
2017-May-17 03:46N 26°06' W 080°10'0 0.0
2017-May-17 03:16N 26°06' W 080°10'0 0.0
2017-May-17 02:58N 26°06' W 080°10'0 0.0
2017-May-17 02:28N 26°06' W 080°10'0 0.0
2017-May-17 01:58N 26°06' W 080°10'0 0.0
2017-May-17 01:19N 26°06' W 080°10'0 0.0
2017-May-17 00:49N 26°06' W 080°10'0 0.0
2017-May-16 23:19N 26°06' W 080°10'0 0.0
2017-May-16 22:31N 26°06' W 080°10'0 0.0
2017-May-16 22:19N 26°06' W 080°10'0 0.0
2017-May-16 21:37N 26°06' W 080°10'0 0.0
2017-May-16 21:07N 26°06' W 080°10'0 0.0
2017-May-16 20:55N 26°06' W 080°10'0 0.0
2017-May-16 20:25N 26°06' W 080°10'0 0.0
2017-May-16 19:49N 26°06' W 080°10'0 0.0
2017-May-16 19:25N 26°06' W 080°10'0 0.0
2017-May-16 17:37N 26°06' W 080°10'0 0.3
2017-May-16 17:19N 26°06' W 080°10'0 0.0
2017-May-16 16:52N 26°06' W 080°10'0 0.0
2017-May-16 16:22N 26°06' W 080°10'0 0.1
2017-May-16 15:34N 26°06' W 080°10'0 0.0
2017-May-16 15:22N 26°06' W 080°10'0 0.0
2017-May-16 14:52N 26°06' W 080°10'0 0.0
2017-May-16 13:52N 26°06' W 080°10'0 0.0
2017-May-16 13:25N 26°06' W 080°10'0 0.0
2017-May-16 12:55N 26°06' W 080°10'0 0.0
2017-May-16 12:25N 26°06' W 080°10'0 0.0
2017-May-16 11:58N 26°06' W 080°10'  
Track history (hours):
 
Tides and Currents Weather Stations Pressure Air Temp Water Temp Dewpoint Dewpoint Depression Visibility Wind Speed Wind Dir Waves Ship Positions

Serendipity II

Last reported at 2017-May-26 11:39 UTC. Time now 2017-Jun-27 22:41 UTC.
Position N 26°06' W 080°03'.
Warning: this ship's position is 32 days out of date.

Length 39 m.

Type: Pleasure craft. MMSI: 319848000.

Date/timePositionNaut miles runAvg speedWind from/ knotsBaromVisibWave heightAir tempDewpointWater temp
2017-May-26 11:39N 26°06' W 080°03'316.6
2017-May-26 11:29N 26°06' W 080°06'1 1.1
2017-May-26 10:27N 26°07' W 080°06'0 0.0
2017-May-26 10:00N 26°07' W 080°06'0 0.0
2017-May-26 08:45N 26°07' W 080°06'0 0.0
2017-May-26 08:21N 26°07' W 080°06'0 0.0
2017-May-26 08:00N 26°07' W 080°06'0 0.0
2017-May-26 07:30N 26°07' W 080°06'0 0.0
2017-May-26 06:51N 26°07' W 080°06'0 0.0
2017-May-26 05:33N 26°07' W 080°06'0 0.0
2017-May-26 05:21N 26°07' W 080°06'0 0.0
2017-May-26 04:51N 26°07' W 080°06'0 0.0
2017-May-26 03:54N 26°07' W 080°06'0 0.0
2017-May-26 03:24N 26°07' W 080°06'0 0.0
2017-May-26 02:57N 26°07' W 080°06'0 0.0
2017-May-26 02:24N 26°07' W 080°06'0 0.0
2017-May-25 23:45N 26°07' W 080°06'0 0.0
2017-May-25 20:30N 26°07' W 080°06'0 0.0
2017-May-25 16:54N 26°07' W 080°06'0 0.0
2017-May-25 15:51N 26°07' W 080°06'0 0.0
2017-May-25 11:45N 26°07' W 080°06'0 0.0
2017-May-25 11:27N 26°07' W 080°06'0 0.0
2017-May-25 10:57N 26°07' W 080°06'0 0.0
2017-May-25 10:30N 26°07' W 080°06'0 0.0
2017-May-25 06:51N 26°07' W 080°06'0 0.0
2017-May-25 05:03N 26°07' W 080°06'0 0.0
2017-May-25 04:33N 26°07' W 080°06'0 0.0
2017-May-25 04:18N 26°07' W 080°06'0 0.0
2017-May-25 01:57N 26°07' W 080°06'0 0.0
2017-May-25 00:12N 26°07' W 080°06'0 0.0
2017-May-25 00:00N 26°07' W 080°06'0 0.0
2017-May-24 23:30N 26°07' W 080°06'0 0.0
2017-May-24 22:50N 26°07' W 080°06'0 0.0
2017-May-24 22:21N 26°07' W 080°06'0 0.0
2017-May-24 21:54N 26°07' W 080°06'1 2.4
2017-May-24 21:28N 26°06' W 080°06'3 2.9
2017-May-24 20:26N 26°08' W 080°05'2 4.7
2017-May-24 19:54N 26°07' W 080°07'  
2017-May-22 15:11N 26°07' W 080°06'1 2.7
2017-May-22 14:58N 26°07' W 080°07'3 3.2
2017-May-22 14:00N 26°05' W 080°04'3 5.6
2017-May-22 13:29N 26°07' W 080°07'0 0.0
2017-May-20 14:43N 26°07' W 080°06'0 1.1
2017-May-20 14:30N 26°07' W 080°07'3 2.9
2017-May-20 13:30N 26°06' W 080°10'0 0.0
2017-May-19 04:45N 26°06' W 080°10'0 0.0
2017-May-19 04:30N 26°06' W 080°10'0 0.0
2017-May-19 03:30N 26°06' W 080°10'0 0.0
2017-May-19 03:00N 26°06' W 080°10'0 0.0
2017-May-19 02:30N 26°06' W 080°10'0 0.0
2017-May-19 01:57N 26°06' W 080°10'0 0.0
2017-May-19 01:19N 26°06' W 080°10'0 0.0
2017-May-19 01:00N 26°06' W 080°10'0 0.0
2017-May-19 00:30N 26°06' W 080°10'0 0.0
2017-May-18 23:48N 26°06' W 080°10'0 0.0
2017-May-18 23:30N 26°06' W 080°10'0 0.0
2017-May-18 22:51N 26°06' W 080°10'0 0.0
2017-May-18 22:22N 26°06' W 080°10'0 0.0
2017-May-18 21:55N 26°06' W 080°10'0 0.0
2017-May-18 21:24N 26°06' W 080°10'0 0.0
2017-May-18 18:43N 26°06' W 080°10'0 0.0
2017-May-18 17:01N 26°06' W 080°10'0 0.0
2017-May-18 16:46N 26°06' W 080°10'0 0.0
2017-May-18 16:01N 26°06' W 080°10'0 0.0
2017-May-18 15:58N 26°06' W 080°10'0 0.0
2017-May-18 11:49N 26°06' W 080°10'0 0.0
2017-May-18 11:22N 26°06' W 080°10'0 0.0
2017-May-18 10:49N 26°06' W 080°10'0 0.0
2017-May-18 10:22N 26°06' W 080°10'0 0.0
2017-May-18 09:49N 26°06' W 080°10'0 0.0
2017-May-18 09:19N 26°06' W 080°10'0 0.0
2017-May-18 08:55N 26°06' W 080°10'0 0.0
2017-May-18 08:25N 26°06' W 080°10'0 0.0
2017-May-18 07:55N 26°06' W 080°10'0 0.0
2017-May-18 07:25N 26°06' W 080°10'0 0.0
2017-May-18 06:55N 26°06' W 080°10'0 0.0
2017-May-18 06:25N 26°06' W 080°10'0 0.0
2017-May-18 04:46N 26°06' W 080°10'0 0.0
2017-May-18 04:28N 26°06' W 080°10'0 0.0
2017-May-18 03:55N 26°06' W 080°10'0 0.0
2017-May-18 03:16N 26°06' W 080°10'0 0.0
2017-May-18 02:28N 26°06' W 080°10'0 0.0
2017-May-18 01:49N 26°06' W 080°10'0 0.0
2017-May-18 01:04N 26°06' W 080°10'0 0.0
2017-May-18 00:49N 26°06' W 080°10'0 0.0
2017-May-17 23:37N 26°06' W 080°10'0 0.0
2017-May-17 23:07N 26°06' W 080°10'0 0.0
2017-May-17 22:49N 26°06' W 080°10'0 0.0
2017-May-17 21:49N 26°06' W 080°10'0 0.0
2017-May-17 20:25N 26°06' W 080°10'0 0.0
2017-May-17 11:49N 26°06' W 080°10'0 0.0
2017-May-17 11:16N 26°06' W 080°10'0 0.0
2017-May-17 07:55N 26°06' W 080°10'0 0.0
2017-May-17 07:07N 26°06' W 080°10'0 0.0
2017-May-17 05:13N 26°06' W 080°10'0 0.0
2017-May-17 04:28N 26°06' W 080°10'0 0.0
2017-May-17 03:46N 26°06' W 080°10'0 0.0
2017-May-17 03:16N 26°06' W 080°10'0 0.0
2017-May-17 02:58N 26°06' W 080°10'0 0.0
2017-May-17 02:28N 26°06' W 080°10'0 0.0
2017-May-17 01:58N 26°06' W 080°10'0 0.0
2017-May-17 01:19N 26°06' W 080°10'0 0.0
2017-May-17 00:49N 26°06' W 080°10'0 0.0
2017-May-16 23:19N 26°06' W 080°10'0 0.0
2017-May-16 22:31N 26°06' W 080°10'0 0.0
2017-May-16 22:19N 26°06' W 080°10'0 0.0
2017-May-16 21:37N 26°06' W 080°10'0 0.0
2017-May-16 21:07N 26°06' W 080°10'0 0.0
2017-May-16 20:55N 26°06' W 080°10'0 0.0
2017-May-16 20:25N 26°06' W 080°10'0 0.0
2017-May-16 19:49N 26°06' W 080°10'0 0.0
2017-May-16 19:25N 26°06' W 080°10'0 0.0
2017-May-16 17:37N 26°06' W 080°10'0 0.3
2017-May-16 17:19N 26°06' W 080°10'0 0.0
2017-May-16 16:52N 26°06' W 080°10'0 0.0
2017-May-16 16:22N 26°06' W 080°10'0 0.1
2017-May-16 15:34N 26°06' W 080°10'0 0.0
2017-May-16 15:22N 26°06' W 080°10'0 0.0
2017-May-16 14:52N 26°06' W 080°10'0 0.0
2017-May-16 13:52N 26°06' W 080°10'0 0.0
2017-May-16 13:25N 26°06' W 080°10'0 0.0
2017-May-16 12:55N 26°06' W 080°10'0 0.0
2017-May-16 12:25N 26°06' W 080°10'0 0.0
2017-May-16 11:58N 26°06' W 080°10'  

Dump ship's entire track history